Airfield :
LOGIN :

Register | Disclaimer

   EN    FR    IT 

 










Legend :    VFR   Marginal VFR   IFR   Intensive IFR   Very Intensive IFR
Visi :
Ceiling :
>= 8 km
>= 3000ft
5 to 8 km
1000 to 3000 ft
1500m to 5 km
500 to 1000 ft
800 to 1500m
200 to 500 ft
< 800m
< 200 ft
Symbols :   Thunderstorms  Fog  Heavy snow  Heavy precipitations  Wind > 20 kt
SIGMETs :     Misc.  Thunderstorms  Icing  Turbulence  Mountain Waves  Volcanic Ashes






- Airport Elevation : 1247 ft
- IATA code : PRG


LKPR - Praha Ruzyne

CURRENT METAR :
  • 142100Z 09009KT 9999 OVC016 04/02 Q1006 NOSIG

EXPIRED METARs :
  • 142030Z 09010KT 080V140 9999 OVC018 04/02 Q1006 NOSIG
  • 142000Z 08009KT 9999 OVC018 04/02 Q1007 NOSIG
  • 141930Z 09007KT 9999 OVC018 04/02 Q1007 NOSIG
  • 141900Z 10006KT 070V160 9999 OVC019 04/01 Q1008 NOSIG
  • 141830Z 11008KT 9999 OVC020 04/01 Q1007 NOSIG
  • 141800Z 12008KT 9999 OVC019 04/01 Q1008 NOSIG

TAF AMD TAF LKPR
Valid from the 14 at 19:00 until the 16 at 00:00 UTC


141920Z 1419/1600 10007KT 9999 OVC020
TEMPO 1420/1509 9000 BKN013
PROB30
TEMPO 1503/1508 2000 BR BKN007
BECMG 1509/1511 13012G22KT CAVOK



MET'MAP, your aeronautical weather chart ! - Copyright ORBIFLY December 2007 - Disclaimer

ORBIFLY MET'MAP TEAM :

Programming & Development : Alexandra Zaïnal
Concept & Development : Baudouin d'Aumeries
Co-Development & Prog : Marc-Olivier Méhu
Technical & hardware support : Manuel Goepfert

Contact : metmap@orbifly.com




SOURCES & CREDITS :

   NOAA